sensor_id;sensor_type;location;lat;lon;timestamp;P1;durP1;ratioP1;P2;durP2;ratioP2
57744;SDS011;58941;50.168;4.410;2024-02-16T00:01:00;3.13;;;1.58;;
57744;SDS011;58941;50.168;4.410;2024-02-16T00:03:28;1.80;;;1.40;;
57744;SDS011;58941;50.168;4.410;2024-02-16T00:05:54;2.22;;;1.60;;
57744;SDS011;58941;50.168;4.410;2024-02-16T00:08:20;2.42;;;1.40;;
57744;SDS011;58941;50.168;4.410;2024-02-16T00:10:47;2.00;;;1.50;;
57744;SDS011;58941;50.168;4.410;2024-02-16T00:13:16;2.28;;;1.50;;
57744;SDS011;58941;50.168;4.410;2024-02-16T00:15:42;2.10;;;1.52;;
57744;SDS011;58941;50.168;4.410;2024-02-16T00:18:09;2.13;;;1.50;;
57744;SDS011;58941;50.168;4.410;2024-02-16T00:20:34;2.83;;;1.50;;
57744;SDS011;58941;50.168;4.410;2024-02-16T00:23:01;1.70;;;1.30;;
57744;SDS011;58941;50.168;4.410;2024-02-16T00:25:32;1.83;;;1.20;;
57744;SDS011;58941;50.168;4.410;2024-02-16T00:27:58;2.72;;;1.67;;
57744;SDS011;58941;50.168;4.410;2024-02-16T00:30:27;1.55;;;1.45;;
57744;SDS011;58941;50.168;4.410;2024-02-16T00:32:57;2.00;;;1.50;;
57744;SDS011;58941;50.168;4.410;2024-02-16T00:35:27;2.08;;;1.60;;
57744;SDS011;58941;50.168;4.410;2024-02-16T00:38:01;2.63;;;1.67;;
57744;SDS011;58941;50.168;4.410;2024-02-16T00:40:29;1.77;;;1.40;;
57744;SDS011;58941;50.168;4.410;2024-02-16T00:42:55;2.20;;;1.42;;
57744;SDS011;58941;50.168;4.410;2024-02-16T00:45:21;2.35;;;1.52;;
57744;SDS011;58941;50.168;4.410;2024-02-16T00:47:47;2.10;;;1.63;;
57744;SDS011;58941;50.168;4.410;2024-02-16T00:50:15;2.00;;;1.55;;
57744;SDS011;58941;50.168;4.410;2024-02-16T00:52:41;1.67;;;1.33;;
57744;SDS011;58941;50.168;4.410;2024-02-16T00:55:08;2.30;;;1.85;;
57744;SDS011;58941;50.168;4.410;2024-02-16T00:57:35;2.00;;;1.58;;
57744;SDS011;58941;50.168;4.410;2024-02-16T01:00:00;1.83;;;1.60;;
57744;SDS011;58941;50.168;4.410;2024-02-16T01:02:26;2.60;;;1.60;;
57744;SDS011;58941;50.168;4.410;2024-02-16T01:04:53;3.90;;;1.77;;
57744;SDS011;58941;50.168;4.410;2024-02-16T01:09:50;1.65;;;1.50;;
57744;SDS011;58941;50.168;4.410;2024-02-16T01:12:19;1.80;;;1.50;;
57744;SDS011;58941;50.168;4.410;2024-02-16T01:14:47;1.70;;;1.60;;
57744;SDS011;58941;50.168;4.410;2024-02-16T01:17:15;2.88;;;1.75;;
57744;SDS011;58941;50.168;4.410;2024-02-16T01:19:43;1.80;;;1.50;;
57744;SDS011;58941;50.168;4.410;2024-02-16T01:22:12;1.67;;;1.40;;
57744;SDS011;58941;50.168;4.410;2024-02-16T01:24:39;2.35;;;1.70;;
57744;SDS011;58941;50.168;4.410;2024-02-16T01:27:05;2.80;;;1.67;;
57744;SDS011;58941;50.168;4.410;2024-02-16T01:29:30;2.40;;;1.77;;
57744;SDS011;58941;50.168;4.410;2024-02-16T01:31:58;3.50;;;1.63;;
57744;SDS011;58941;50.168;4.410;2024-02-16T01:34:23;2.22;;;1.50;;
57744;SDS011;58941;50.168;4.410;2024-02-16T01:36:49;2.28;;;1.70;;
57744;SDS011;58941;50.168;4.410;2024-02-16T01:39:14;1.80;;;1.35;;
57744;SDS011;58941;50.168;4.410;2024-02-16T01:41:40;2.28;;;1.63;;
57744;SDS011;58941;50.168;4.410;2024-02-16T01:44:06;2.22;;;1.60;;
57744;SDS011;58941;50.168;4.410;2024-02-16T01:46:31;1.80;;;1.60;;
57744;SDS011;58941;50.168;4.410;2024-02-16T01:48:58;2.17;;;1.60;;
57744;SDS011;58941;50.168;4.410;2024-02-16T01:51:24;1.95;;;1.70;;
57744;SDS011;58941;50.168;4.410;2024-02-16T01:53:51;2.95;;;1.80;;
57744;SDS011;58941;50.168;4.410;2024-02-16T01:56:17;1.50;;;1.40;;
57744;SDS011;58941;50.168;4.410;2024-02-16T01:58:46;2.22;;;1.42;;
57744;SDS011;58941;50.168;4.410;2024-02-16T02:01:12;1.52;;;1.33;;
57744;SDS011;58941;50.168;4.410;2024-02-16T02:03:37;1.92;;;1.45;;
57744;SDS011;58941;50.168;4.410;2024-02-16T02:06:03;1.85;;;1.52;;
57744;SDS011;58941;50.168;4.410;2024-02-16T02:08:28;3.05;;;1.75;;
57744;SDS011;58941;50.168;4.410;2024-02-16T02:10:54;2.63;;;1.88;;
57744;SDS011;58941;50.168;4.410;2024-02-16T02:13:19;1.73;;;1.48;;
57744;SDS011;58941;50.168;4.410;2024-02-16T02:15:47;1.65;;;1.20;;
57744;SDS011;58941;50.168;4.410;2024-02-16T02:18:12;1.88;;;1.50;;
57744;SDS011;58941;50.168;4.410;2024-02-16T02:20:38;1.90;;;1.50;;
57744;SDS011;58941;50.168;4.410;2024-02-16T02:23:04;1.90;;;1.50;;
57744;SDS011;58941;50.168;4.410;2024-02-16T02:25:29;2.08;;;1.40;;
57744;SDS011;58941;50.168;4.410;2024-02-16T02:27:55;1.75;;;1.23;;
57744;SDS011;58941;50.168;4.410;2024-02-16T02:30:21;1.90;;;1.60;;
57744;SDS011;58941;50.168;4.410;2024-02-16T02:32:46;1.90;;;1.70;;
57744;SDS011;58941;50.168;4.410;2024-02-16T02:35:12;1.75;;;1.55;;
57744;SDS011;58941;50.168;4.410;2024-02-16T02:37:39;1.70;;;1.50;;
57744;SDS011;58941;50.168;4.410;2024-02-16T02:40:06;1.73;;;1.60;;
57744;SDS011;58941;50.168;4.410;2024-02-16T02:42:34;2.00;;;1.60;;
57744;SDS011;58941;50.168;4.410;2024-02-16T02:44:59;1.85;;;1.55;;
57744;SDS011;58941;50.168;4.410;2024-02-16T02:47:25;2.72;;;1.63;;
57744;SDS011;58941;50.168;4.410;2024-02-16T02:49:50;2.10;;;1.38;;
57744;SDS011;58941;50.168;4.410;2024-02-16T02:52:16;2.10;;;1.55;;
57744;SDS011;58941;50.168;4.410;2024-02-16T02:54:42;2.08;;;1.40;;
57744;SDS011;58941;50.168;4.410;2024-02-16T02:57:07;1.63;;;1.52;;
57744;SDS011;58941;50.168;4.410;2024-02-16T02:59:32;1.95;;;1.50;;
57744;SDS011;58941;50.168;4.410;2024-02-16T03:01:58;2.60;;;1.60;;
57744;SDS011;58941;50.168;4.410;2024-02-16T03:04:24;1.73;;;1.40;;
57744;SDS011;58941;50.168;4.410;2024-02-16T03:06:52;2.58;;;1.60;;
57744;SDS011;58941;50.168;4.410;2024-02-16T03:09:18;2.13;;;1.50;;
57744;SDS011;58941;50.168;4.410;2024-02-16T03:11:44;1.75;;;1.65;;
57744;SDS011;58941;50.168;4.410;2024-02-16T03:14:09;2.17;;;1.40;;
57744;SDS011;58941;50.168;4.410;2024-02-16T03:16:35;2.50;;;1.55;;
57744;SDS011;58941;50.168;4.410;2024-02-16T03:19:00;1.92;;;1.40;;
57744;SDS011;58941;50.168;4.410;2024-02-16T03:21:26;1.70;;;1.40;;
57744;SDS011;58941;50.168;4.410;2024-02-16T03:23:52;1.40;;;1.30;;
57744;SDS011;58941;50.168;4.410;2024-02-16T03:26:18;1.70;;;1.55;;
57744;SDS011;58941;50.168;4.410;2024-02-16T03:28:44;1.83;;;1.40;;
57744;SDS011;58941;50.168;4.410;2024-02-16T03:31:22;1.80;;;1.42;;
57744;SDS011;58941;50.168;4.410;2024-02-16T03:33:48;1.50;;;1.40;;
57744;SDS011;58941;50.168;4.410;2024-02-16T03:36:14;1.90;;;1.70;;
57744;SDS011;58941;50.168;4.410;2024-02-16T03:38:46;3.30;;;1.60;;
57744;SDS011;58941;50.168;4.410;2024-02-16T03:41:15;1.83;;;1.70;;
57744;SDS011;58941;50.168;4.410;2024-02-16T03:43:43;2.10;;;1.52;;
57744;SDS011;58941;50.168;4.410;2024-02-16T03:46:08;2.75;;;1.70;;
57744;SDS011;58941;50.168;4.410;2024-02-16T03:48:34;2.22;;;1.52;;
57744;SDS011;58941;50.168;4.410;2024-02-16T03:50:59;2.70;;;1.67;;
57744;SDS011;58941;50.168;4.410;2024-02-16T03:53:25;2.30;;;1.55;;
57744;SDS011;58941;50.168;4.410;2024-02-16T03:55:50;2.25;;;1.60;;
57744;SDS011;58941;50.168;4.410;2024-02-16T03:58:16;3.17;;;1.58;;
57744;SDS011;58941;50.168;4.410;2024-02-16T04:00:42;2.03;;;1.52;;
57744;SDS011;58941;50.168;4.410;2024-02-16T04:03:08;1.40;;;1.30;;
57744;SDS011;58941;50.168;4.410;2024-02-16T04:05:34;2.10;;;1.60;;
57744;SDS011;58941;50.168;4.410;2024-02-16T04:08:00;2.47;;;1.90;;
57744;SDS011;58941;50.168;4.410;2024-02-16T04:10:27;1.67;;;1.50;;
57744;SDS011;58941;50.168;4.410;2024-02-16T04:12:55;3.10;;;1.65;;
57744;SDS011;58941;50.168;4.410;2024-02-16T04:15:21;2.25;;;1.40;;
57744;SDS011;58941;50.168;4.410;2024-02-16T04:17:47;1.90;;;1.52;;
57744;SDS011;58941;50.168;4.410;2024-02-16T04:20:14;2.63;;;1.70;;
57744;SDS011;58941;50.168;4.410;2024-02-16T04:22:39;2.28;;;1.30;;
57744;SDS011;58941;50.168;4.410;2024-02-16T04:25:04;2.28;;;1.55;;
57744;SDS011;58941;50.168;4.410;2024-02-16T04:27:30;2.10;;;1.50;;
57744;SDS011;58941;50.168;4.410;2024-02-16T04:29:55;1.95;;;1.50;;
57744;SDS011;58941;50.168;4.410;2024-02-16T04:32:21;1.73;;;1.63;;
57744;SDS011;58941;50.168;4.410;2024-02-16T04:34:46;2.60;;;1.70;;
57744;SDS011;58941;50.168;4.410;2024-02-16T04:37:12;2.30;;;1.50;;
57744;SDS011;58941;50.168;4.410;2024-02-16T04:39:38;2.10;;;1.58;;
57744;SDS011;58941;50.168;4.410;2024-02-16T04:42:04;1.73;;;1.52;;
57744;SDS011;58941;50.168;4.410;2024-02-16T04:44:29;1.50;;;1.40;;
57744;SDS011;58941;50.168;4.410;2024-02-16T04:46:55;2.58;;;1.73;;
57744;SDS011;58941;50.168;4.410;2024-02-16T04:49:20;1.60;;;1.50;;
57744;SDS011;58941;50.168;4.410;2024-02-16T04:51:47;2.92;;;1.70;;
57744;SDS011;58941;50.168;4.410;2024-02-16T04:54:12;2.28;;;1.55;;
57744;SDS011;58941;50.168;4.410;2024-02-16T04:56:39;1.98;;;1.40;;
57744;SDS011;58941;50.168;4.410;2024-02-16T04:59:04;2.53;;;1.60;;
57744;SDS011;58941;50.168;4.410;2024-02-16T05:01:30;1.77;;;1.40;;
57744;SDS011;58941;50.168;4.410;2024-02-16T05:03:58;1.70;;;1.60;;
57744;SDS011;58941;50.168;4.410;2024-02-16T05:06:23;3.28;;;1.80;;
57744;SDS011;58941;50.168;4.410;2024-02-16T05:08:49;2.85;;;1.70;;
57744;SDS011;58941;50.168;4.410;2024-02-16T05:11:15;2.83;;;1.80;;
57744;SDS011;58941;50.168;4.410;2024-02-16T05:13:40;3.05;;;2.03;;
57744;SDS011;58941;50.168;4.410;2024-02-16T05:16:08;2.35;;;1.90;;
57744;SDS011;58941;50.168;4.410;2024-02-16T05:18:34;3.05;;;1.60;;
57744;SDS011;58941;50.168;4.410;2024-02-16T05:20:59;1.90;;;1.60;;
57744;SDS011;58941;50.168;4.410;2024-02-16T05:23:25;4.43;;;1.88;;
57744;SDS011;58941;50.168;4.410;2024-02-16T05:25:50;2.65;;;1.50;;
57744;SDS011;58941;50.168;4.410;2024-02-16T05:28:16;3.08;;;1.60;;
57744;SDS011;58941;50.168;4.410;2024-02-16T05:30:42;2.83;;;1.80;;
57744;SDS011;58941;50.168;4.410;2024-02-16T05:33:07;2.95;;;1.70;;
57744;SDS011;58941;50.168;4.410;2024-02-16T05:35:33;1.92;;;1.65;;
57744;SDS011;58941;50.168;4.410;2024-02-16T05:37:59;2.28;;;1.77;;
57744;SDS011;58941;50.168;4.410;2024-02-16T05:40:32;2.15;;;1.60;;
57744;SDS011;58941;50.168;4.410;2024-02-16T05:43:09;3.00;;;1.80;;
57744;SDS011;58941;50.168;4.410;2024-02-16T05:45:34;2.83;;;1.70;;
57744;SDS011;58941;50.168;4.410;2024-02-16T05:48:00;2.65;;;1.63;;
57744;SDS011;58941;50.168;4.410;2024-02-16T05:50:26;2.83;;;1.70;;
57744;SDS011;58941;50.168;4.410;2024-02-16T05:52:51;2.45;;;1.60;;
57744;SDS011;58941;50.168;4.410;2024-02-16T05:55:17;2.30;;;1.70;;
57744;SDS011;58941;50.168;4.410;2024-02-16T05:57:44;3.40;;;1.80;;
57744;SDS011;58941;50.168;4.410;2024-02-16T06:00:09;3.15;;;1.45;;
57744;SDS011;58941;50.168;4.410;2024-02-16T06:02:36;4.03;;;1.75;;
57744;SDS011;58941;50.168;4.410;2024-02-16T06:05:02;2.47;;;2.00;;
57744;SDS011;58941;50.168;4.410;2024-02-16T06:07:28;5.10;;;1.80;;
57744;SDS011;58941;50.168;4.410;2024-02-16T06:09:54;3.38;;;1.85;;
57744;SDS011;58941;50.168;4.410;2024-02-16T06:12:20;2.25;;;1.70;;
57744;SDS011;58941;50.168;4.410;2024-02-16T06:14:46;2.58;;;1.60;;
57744;SDS011;58941;50.168;4.410;2024-02-16T06:17:13;3.85;;;2.13;;
57744;SDS011;58941;50.168;4.410;2024-02-16T06:19:42;3.90;;;1.77;;
57744;SDS011;58941;50.168;4.410;2024-02-16T06:22:08;1.90;;;1.52;;
57744;SDS011;58941;50.168;4.410;2024-02-16T06:24:34;2.08;;;1.63;;
57744;SDS011;58941;50.168;4.410;2024-02-16T06:27:00;2.63;;;1.70;;
57744;SDS011;58941;50.168;4.410;2024-02-16T06:29:25;2.70;;;1.70;;
57744;SDS011;58941;50.168;4.410;2024-02-16T06:31:51;3.30;;;1.92;;
57744;SDS011;58941;50.168;4.410;2024-02-16T06:34:17;4.13;;;1.70;;
57744;SDS011;58941;50.168;4.410;2024-02-16T06:36:43;2.65;;;1.70;;
57744;SDS011;58941;50.168;4.410;2024-02-16T06:39:08;2.22;;;1.80;;
57744;SDS011;58941;50.168;4.410;2024-02-16T06:41:45;3.55;;;1.70;;
57744;SDS011;58941;50.168;4.410;2024-02-16T06:44:11;2.03;;;1.77;;
57744;SDS011;58941;50.168;4.410;2024-02-16T06:46:36;2.28;;;1.60;;
57744;SDS011;58941;50.168;4.410;2024-02-16T06:49:02;3.47;;;1.80;;
57744;SDS011;58941;50.168;4.410;2024-02-16T06:51:27;2.97;;;1.80;;
57744;SDS011;58941;50.168;4.410;2024-02-16T06:53:54;2.38;;;1.60;;
57744;SDS011;58941;50.168;4.410;2024-02-16T06:56:19;1.90;;;1.63;;
57744;SDS011;58941;50.168;4.410;2024-02-16T06:58:45;2.25;;;1.40;;
57744;SDS011;58941;50.168;4.410;2024-02-16T07:01:12;2.30;;;1.58;;
57744;SDS011;58941;50.168;4.410;2024-02-16T07:03:38;2.35;;;1.50;;
57744;SDS011;58941;50.168;4.410;2024-02-16T07:06:03;2.38;;;1.50;;
57744;SDS011;58941;50.168;4.410;2024-02-16T07:08:29;2.22;;;1.50;;
57744;SDS011;58941;50.168;4.410;2024-02-16T07:10:55;3.08;;;1.70;;
57744;SDS011;58941;50.168;4.410;2024-02-16T07:13:22;1.95;;;1.42;;
57744;SDS011;58941;50.168;4.410;2024-02-16T07:15:47;1.90;;;1.52;;
57744;SDS011;58941;50.168;4.410;2024-02-16T07:18:13;2.97;;;1.90;;
57744;SDS011;58941;50.168;4.410;2024-02-16T07:20:38;1.70;;;1.60;;
57744;SDS011;58941;50.168;4.410;2024-02-16T07:23:04;1.90;;;1.40;;
57744;SDS011;58941;50.168;4.410;2024-02-16T07:25:29;1.88;;;1.52;;
57744;SDS011;58941;50.168;4.410;2024-02-16T07:27:55;2.38;;;1.55;;
57744;SDS011;58941;50.168;4.410;2024-02-16T07:30:20;2.40;;;1.58;;
57744;SDS011;58941;50.168;4.410;2024-02-16T07:32:49;2.70;;;1.60;;
57744;SDS011;58941;50.168;4.410;2024-02-16T07:35:20;2.25;;;1.42;;
57744;SDS011;58941;50.168;4.410;2024-02-16T07:37:50;1.77;;;1.60;;
57744;SDS011;58941;50.168;4.410;2024-02-16T07:40:17;1.98;;;1.45;;
57744;SDS011;58941;50.168;4.410;2024-02-16T07:42:43;2.50;;;1.58;;
57744;SDS011;58941;50.168;4.410;2024-02-16T07:45:10;2.55;;;1.60;;
57744;SDS011;58941;50.168;4.410;2024-02-16T07:47:40;2.50;;;1.67;;
57744;SDS011;58941;50.168;4.410;2024-02-16T07:50:05;2.22;;;1.58;;
57744;SDS011;58941;50.168;4.410;2024-02-16T07:52:31;2.45;;;1.88;;
57744;SDS011;58941;50.168;4.410;2024-02-16T07:54:58;2.38;;;1.65;;
57744;SDS011;58941;50.168;4.410;2024-02-16T07:57:24;3.72;;;1.45;;
57744;SDS011;58941;50.168;4.410;2024-02-16T07:59:49;2.50;;;1.73;;
57744;SDS011;58941;50.168;4.410;2024-02-16T08:02:15;3.33;;;1.60;;
57744;SDS011;58941;50.168;4.410;2024-02-16T08:04:46;3.20;;;1.80;;
57744;SDS011;58941;50.168;4.410;2024-02-16T08:07:12;2.10;;;1.45;;
57744;SDS011;58941;50.168;4.410;2024-02-16T08:09:37;2.30;;;1.85;;
57744;SDS011;58941;50.168;4.410;2024-02-16T08:12:03;2.88;;;1.80;;
57744;SDS011;58941;50.168;4.410;2024-02-16T08:14:32;2.80;;;2.00;;
57744;SDS011;58941;50.168;4.410;2024-02-16T08:16:58;6.35;;;2.03;;
57744;SDS011;58941;50.168;4.410;2024-02-16T08:19:26;3.28;;;1.92;;
57744;SDS011;58941;50.168;4.410;2024-02-16T08:21:57;2.28;;;1.98;;
57744;SDS011;58941;50.168;4.410;2024-02-16T08:24:22;1.90;;;1.70;;
57744;SDS011;58941;50.168;4.410;2024-02-16T08:26:48;3.05;;;2.00;;
57744;SDS011;58941;50.168;4.410;2024-02-16T08:29:14;3.40;;;1.83;;
57744;SDS011;58941;50.168;4.410;2024-02-16T08:31:39;3.50;;;1.70;;
57744;SDS011;58941;50.168;4.410;2024-02-16T08:34:05;3.35;;;1.75;;
57744;SDS011;58941;50.168;4.410;2024-02-16T08:36:32;5.05;;;1.70;;
57744;SDS011;58941;50.168;4.410;2024-02-16T08:38:59;2.95;;;1.73;;
57744;SDS011;58941;50.168;4.410;2024-02-16T08:41:25;3.15;;;1.70;;
57744;SDS011;58941;50.168;4.410;2024-02-16T08:43:51;1.77;;;1.67;;
57744;SDS011;58941;50.168;4.410;2024-02-16T08:46:17;3.33;;;1.88;;
57744;SDS011;58941;50.168;4.410;2024-02-16T08:48:46;2.63;;;1.55;;
57744;SDS011;58941;50.168;4.410;2024-02-16T08:51:12;2.47;;;2.03;;
57744;SDS011;58941;50.168;4.410;2024-02-16T08:53:39;2.10;;;1.70;;
57744;SDS011;58941;50.168;4.410;2024-02-16T08:56:08;2.85;;;2.13;;
57744;SDS011;58941;50.168;4.410;2024-02-16T08:58:34;2.58;;;1.90;;
57744;SDS011;58941;50.168;4.410;2024-02-16T09:01:00;2.65;;;2.00;;
57744;SDS011;58941;50.168;4.410;2024-02-16T09:03:26;2.50;;;1.73;;
57744;SDS011;58941;50.168;4.410;2024-02-16T09:05:51;2.92;;;1.85;;
57744;SDS011;58941;50.168;4.410;2024-02-16T09:08:17;3.17;;;1.90;;
57744;SDS011;58941;50.168;4.410;2024-02-16T09:10:42;3.03;;;1.90;;
57744;SDS011;58941;50.168;4.410;2024-02-16T09:13:08;3.03;;;1.60;;
57744;SDS011;58941;50.168;4.410;2024-02-16T09:15:34;3.83;;;2.03;;
57744;SDS011;58941;50.168;4.410;2024-02-16T09:18:02;5.22;;;2.00;;
57744;SDS011;58941;50.168;4.410;2024-02-16T09:20:28;2.17;;;1.90;;
57744;SDS011;58941;50.168;4.410;2024-02-16T09:22:54;2.50;;;1.83;;
57744;SDS011;58941;50.168;4.410;2024-02-16T09:25:19;2.72;;;1.77;;
57744;SDS011;58941;50.168;4.410;2024-02-16T09:27:45;3.47;;;2.15;;
57744;SDS011;58941;50.168;4.410;2024-02-16T09:30:11;3.13;;;2.00;;
57744;SDS011;58941;50.168;4.410;2024-02-16T09:32:40;2.97;;;2.00;;
57744;SDS011;58941;50.168;4.410;2024-02-16T09:35:06;2.95;;;1.85;;
57744;SDS011;58941;50.168;4.410;2024-02-16T09:37:32;3.28;;;1.90;;
57744;SDS011;58941;50.168;4.410;2024-02-16T09:39:58;2.22;;;1.70;;
57744;SDS011;58941;50.168;4.410;2024-02-16T09:42:25;3.95;;;2.15;;
57744;SDS011;58941;50.168;4.410;2024-02-16T09:44:52;4.78;;;2.20;;
57744;SDS011;58941;50.168;4.410;2024-02-16T09:47:20;3.50;;;1.85;;
57744;SDS011;58941;50.168;4.410;2024-02-16T09:49:47;3.95;;;2.00;;
57744;SDS011;58941;50.168;4.410;2024-02-16T09:52:13;3.13;;;1.77;;
57744;SDS011;58941;50.168;4.410;2024-02-16T09:54:39;5.00;;;2.30;;
57744;SDS011;58941;50.168;4.410;2024-02-16T09:57:05;4.03;;;1.92;;
57744;SDS011;58941;50.168;4.410;2024-02-16T09:59:31;4.13;;;1.88;;
57744;SDS011;58941;50.168;4.410;2024-02-16T10:02:01;3.60;;;1.80;;
57744;SDS011;58941;50.168;4.410;2024-02-16T10:04:26;4.75;;;2.13;;
57744;SDS011;58941;50.168;4.410;2024-02-16T10:06:53;4.00;;;2.10;;
57744;SDS011;58941;50.168;4.410;2024-02-16T10:09:23;3.72;;;2.70;;
57744;SDS011;58941;50.168;4.410;2024-02-16T10:11:49;4.22;;;2.03;;
57744;SDS011;58941;50.168;4.410;2024-02-16T10:14:15;5.40;;;2.20;;
57744;SDS011;58941;50.168;4.410;2024-02-16T10:16:41;3.83;;;1.90;;
57744;SDS011;58941;50.168;4.410;2024-02-16T10:19:07;3.28;;;2.10;;
57744;SDS011;58941;50.168;4.410;2024-02-16T10:21:33;2.97;;;2.10;;
57744;SDS011;58941;50.168;4.410;2024-02-16T10:26:28;2.35;;;2.00;;
57744;SDS011;58941;50.168;4.410;2024-02-16T10:28:54;6.60;;;2.13;;
57744;SDS011;58941;50.168;4.410;2024-02-16T10:31:21;3.53;;;2.17;;
57744;SDS011;58941;50.168;4.410;2024-02-16T10:33:57;4.13;;;2.58;;
57744;SDS011;58941;50.168;4.410;2024-02-16T10:36:24;4.43;;;2.50;;
57744;SDS011;58941;50.168;4.410;2024-02-16T10:38:51;5.90;;;2.35;;
57744;SDS011;58941;50.168;4.410;2024-02-16T10:41:18;6.00;;;2.40;;
57744;SDS011;58941;50.168;4.410;2024-02-16T10:43:45;4.95;;;2.13;;
57744;SDS011;58941;50.168;4.410;2024-02-16T10:46:17;4.97;;;2.28;;
57744;SDS011;58941;50.168;4.410;2024-02-16T10:48:43;5.57;;;2.47;;
57744;SDS011;58941;50.168;4.410;2024-02-16T10:51:09;5.05;;;2.50;;
57744;SDS011;58941;50.168;4.410;2024-02-16T10:53:35;5.38;;;2.25;;
57744;SDS011;58941;50.168;4.410;2024-02-16T10:56:01;3.70;;;2.17;;
57744;SDS011;58941;50.168;4.410;2024-02-16T10:58:28;4.55;;;2.30;;
57744;SDS011;58941;50.168;4.410;2024-02-16T11:01:07;4.80;;;2.78;;
57744;SDS011;58941;50.168;4.410;2024-02-16T11:03:33;5.45;;;2.38;;
57744;SDS011;58941;50.168;4.410;2024-02-16T11:05:59;5.03;;;2.47;;
57744;SDS011;58941;50.168;4.410;2024-02-16T11:08:25;4.57;;;2.58;;
57744;SDS011;58941;50.168;4.410;2024-02-16T11:13:25;4.35;;;2.58;;
57744;SDS011;58941;50.168;4.410;2024-02-16T11:18:30;7.15;;;2.80;;
57744;SDS011;58941;50.168;4.410;2024-02-16T11:20:59;3.88;;;2.33;;
57744;SDS011;58941;50.168;4.410;2024-02-16T11:23:29;5.25;;;2.45;;
57744;SDS011;58941;50.168;4.410;2024-02-16T11:26:06;6.88;;;2.60;;
57744;SDS011;58941;50.168;4.410;2024-02-16T11:28:37;6.25;;;2.72;;
57744;SDS011;58941;50.168;4.410;2024-02-16T11:31:04;4.95;;;2.53;;
57744;SDS011;58941;50.168;4.410;2024-02-16T11:33:32;5.63;;;2.55;;
57744;SDS011;58941;50.168;4.410;2024-02-16T11:36:00;3.35;;;2.35;;
57744;SDS011;58941;50.168;4.410;2024-02-16T11:38:26;6.07;;;2.70;;
57744;SDS011;58941;50.168;4.410;2024-02-16T11:40:58;5.30;;;2.45;;
57744;SDS011;58941;50.168;4.410;2024-02-16T11:43:25;5.00;;;2.92;;
57744;SDS011;58941;50.168;4.410;2024-02-16T11:45:51;5.47;;;2.40;;
57744;SDS011;58941;50.168;4.410;2024-02-16T11:48:25;5.07;;;2.50;;
57744;SDS011;58941;50.168;4.410;2024-02-16T11:50:58;5.47;;;2.60;;
57744;SDS011;58941;50.168;4.410;2024-02-16T11:53:24;5.10;;;2.35;;
57744;SDS011;58941;50.168;4.410;2024-02-16T11:55:50;4.20;;;2.22;;
57744;SDS011;58941;50.168;4.410;2024-02-16T11:58:16;6.65;;;2.53;;
57744;SDS011;58941;50.168;4.410;2024-02-16T12:00:44;5.72;;;2.88;;
57744;SDS011;58941;50.168;4.410;2024-02-16T12:03:10;6.18;;;3.20;;
57744;SDS011;58941;50.168;4.410;2024-02-16T12:05:36;3.92;;;2.85;;
57744;SDS011;58941;50.168;4.410;2024-02-16T12:08:02;5.78;;;2.65;;
57744;SDS011;58941;50.168;4.410;2024-02-16T12:10:29;4.68;;;2.35;;
57744;SDS011;58941;50.168;4.410;2024-02-16T12:12:54;4.22;;;2.60;;
57744;SDS011;58941;50.168;4.410;2024-02-16T12:15:21;4.50;;;2.58;;
57744;SDS011;58941;50.168;4.410;2024-02-16T12:17:46;4.25;;;2.97;;
57744;SDS011;58941;50.168;4.410;2024-02-16T12:20:12;4.97;;;2.22;;
57744;SDS011;58941;50.168;4.410;2024-02-16T12:22:38;4.53;;;2.63;;
57744;SDS011;58941;50.168;4.410;2024-02-16T12:25:04;5.18;;;2.85;;
57744;SDS011;58941;50.168;4.410;2024-02-16T12:27:32;4.63;;;2.55;;
57744;SDS011;58941;50.168;4.410;2024-02-16T12:29:59;4.50;;;2.30;;
57744;SDS011;58941;50.168;4.410;2024-02-16T12:32:24;4.13;;;2.35;;
57744;SDS011;58941;50.168;4.410;2024-02-16T12:34:50;6.93;;;2.47;;
57744;SDS011;58941;50.168;4.410;2024-02-16T12:37:16;4.95;;;2.90;;
57744;SDS011;58941;50.168;4.410;2024-02-16T12:39:43;4.05;;;2.33;;
57744;SDS011;58941;50.168;4.410;2024-02-16T12:42:10;4.00;;;2.80;;
57744;SDS011;58941;50.168;4.410;2024-02-16T12:44:38;6.22;;;2.72;;
57744;SDS011;58941;50.168;4.410;2024-02-16T12:47:04;5.15;;;2.50;;
57744;SDS011;58941;50.168;4.410;2024-02-16T12:49:29;3.50;;;2.50;;
57744;SDS011;58941;50.168;4.410;2024-02-16T12:51:55;4.85;;;2.45;;
57744;SDS011;58941;50.168;4.410;2024-02-16T12:54:21;5.35;;;2.50;;
57744;SDS011;58941;50.168;4.410;2024-02-16T12:56:47;4.55;;;2.33;;
57744;SDS011;58941;50.168;4.410;2024-02-16T12:59:14;6.78;;;2.67;;
57744;SDS011;58941;50.168;4.410;2024-02-16T13:01:39;4.47;;;2.53;;
57744;SDS011;58941;50.168;4.410;2024-02-16T13:04:06;4.15;;;2.30;;
57744;SDS011;58941;50.168;4.410;2024-02-16T13:06:32;6.18;;;2.25;;
57744;SDS011;58941;50.168;4.410;2024-02-16T13:08:58;3.10;;;2.10;;
57744;SDS011;58941;50.168;4.410;2024-02-16T13:11:24;3.42;;;2.25;;
57744;SDS011;58941;50.168;4.410;2024-02-16T13:13:50;4.72;;;2.10;;
57744;SDS011;58941;50.168;4.410;2024-02-16T13:16:16;3.45;;;1.95;;
57744;SDS011;58941;50.168;4.410;2024-02-16T13:18:42;2.28;;;1.95;;
57744;SDS011;58941;50.168;4.410;2024-02-16T13:21:08;4.03;;;2.00;;
57744;SDS011;58941;50.168;4.410;2024-02-16T13:23:34;3.10;;;1.88;;
57744;SDS011;58941;50.168;4.410;2024-02-16T13:26:00;4.65;;;2.08;;
57744;SDS011;58941;50.168;4.410;2024-02-16T13:28:26;3.63;;;2.00;;
57744;SDS011;58941;50.168;4.410;2024-02-16T13:30:52;2.92;;;2.22;;
57744;SDS011;58941;50.168;4.410;2024-02-16T13:33:18;4.93;;;2.08;;
57744;SDS011;58941;50.168;4.410;2024-02-16T13:35:44;3.40;;;2.10;;
57744;SDS011;58941;50.168;4.410;2024-02-16T13:38:09;4.90;;;1.85;;
57744;SDS011;58941;50.168;4.410;2024-02-16T13:40:35;2.42;;;1.70;;
57744;SDS011;58941;50.168;4.410;2024-02-16T13:43:01;4.07;;;2.00;;
57744;SDS011;58941;50.168;4.410;2024-02-16T13:45:29;3.90;;;1.90;;
57744;SDS011;58941;50.168;4.410;2024-02-16T13:47:56;2.88;;;1.75;;
57744;SDS011;58941;50.168;4.410;2024-02-16T13:50:21;4.82;;;1.80;;
57744;SDS011;58941;50.168;4.410;2024-02-16T13:52:47;2.47;;;1.90;;
57744;SDS011;58941;50.168;4.410;2024-02-16T13:55:15;2.25;;;2.05;;
57744;SDS011;58941;50.168;4.410;2024-02-16T13:57:40;2.88;;;1.85;;
57744;SDS011;58941;50.168;4.410;2024-02-16T14:00:06;3.65;;;1.92;;
57744;SDS011;58941;50.168;4.410;2024-02-16T14:02:33;4.35;;;1.83;;
57744;SDS011;58941;50.168;4.410;2024-02-16T14:05:00;3.38;;;1.88;;
57744;SDS011;58941;50.168;4.410;2024-02-16T14:07:27;5.13;;;2.50;;
57744;SDS011;58941;50.168;4.410;2024-02-16T14:09:53;3.63;;;1.70;;
57744;SDS011;58941;50.168;4.410;2024-02-16T14:12:20;3.63;;;1.70;;
57744;SDS011;58941;50.168;4.410;2024-02-16T14:14:46;4.95;;;1.77;;
57744;SDS011;58941;50.168;4.410;2024-02-16T14:17:11;2.25;;;1.77;;
57744;SDS011;58941;50.168;4.410;2024-02-16T14:19:37;3.22;;;2.08;;
57744;SDS011;58941;50.168;4.410;2024-02-16T14:22:05;2.72;;;1.58;;
57744;SDS011;58941;50.168;4.410;2024-02-16T14:24:33;2.92;;;1.92;;
57744;SDS011;58941;50.168;4.410;2024-02-16T14:26:58;3.75;;;1.90;;
57744;SDS011;58941;50.168;4.410;2024-02-16T14:29:24;2.00;;;1.60;;
57744;SDS011;58941;50.168;4.410;2024-02-16T14:31:50;2.70;;;1.67;;
57744;SDS011;58941;50.168;4.410;2024-02-16T14:34:16;4.15;;;1.77;;
57744;SDS011;58941;50.168;4.410;2024-02-16T14:36:41;3.78;;;2.10;;
57744;SDS011;58941;50.168;4.410;2024-02-16T14:39:07;3.42;;;1.58;;
57744;SDS011;58941;50.168;4.410;2024-02-16T14:41:33;2.47;;;1.75;;
57744;SDS011;58941;50.168;4.410;2024-02-16T14:44:00;3.50;;;2.28;;
57744;SDS011;58941;50.168;4.410;2024-02-16T14:46:26;2.88;;;1.65;;
57744;SDS011;58941;50.168;4.410;2024-02-16T14:48:52;3.53;;;1.65;;
57744;SDS011;58941;50.168;4.410;2024-02-16T14:51:17;3.25;;;2.03;;
57744;SDS011;58941;50.168;4.410;2024-02-16T14:53:43;2.45;;;1.80;;